Greenville Spartanburg International Airport
KGSP : now visible

Airfield :











YOU CAN JOIN US ON...

 
LOGIN :

Register | Disclaimer

   EN    FR    IT 

 









Legend :    VFR   Marginal VFR   IFR   Intensive IFR   Very Intensive IFR
Visi :
Ceiling :
>= 8 km
>= 3000ft
5 to 8 km
1000 to 3000 ft
1500m to 5 km
500 to 1000 ft
800 to 1500m
200 to 500 ft
< 800m
< 200 ft
Symbols :   Thunderstorms  Fog  Heavy snow  Heavy precipitations  Wind > 20 kt







- Airport Elevation : 964 ft
- IATA code : GSP


KGSP - Greenville Spartanburg International

CURRENT METAR :
  • 191353Z VRB03KT 10SM CLR 29/21 A3010 RMK AO2 SLP179 T02890211

EXPIRED METARs :
  • 191253Z 20003KT 10SM CLR 27/22 A3009 RMK AO2 SLP175 T02720217
  • 191153Z 00000KT 9SM CLR 24/22 A3006 RMK AO2 SLP166 7//// T02440217 10244 20222 53013

TAF KGSP
Valid from the 19 at 12:00 until the 20 at 12:00 UTC


191130Z 1912/2012 00000KT P6SM BKN250
FM191500 VRB04KT P6SM SCT040 BKN250
FM192000 21005KT P6SM SCT060
PROB30 1921/2001 4SM TSRA SCT030CB BKN060
FM200100 24003KT P6SM SCT100 BKN250
FM200900 VRB02KT 6SM BR SCT250
KZTL FIR / North America



MET'MAP, your aeronautical weather chart ! - Copyright ORBIFLY December 2007 - Disclaimer

ORBIFLY MET'MAP TEAM :

Programming & Development : Alexandra Zaïnal
Concept & Development : Baudouin d'Aumeries
Co-Development & Prog : Marc-Olivier Méhu
Technical & hardware support : Manuel Goepfert

Contact : metmap@orbifly.com




SOURCES & CREDITS :

   NOAA       Earth
Advisory